Time;durP1;ratioP1;P1;durP2;ratioP2;P2;SDS_P1;SDS_P2;PMS_P1;PMS_P2;Temp;Humidity;BMP_temperature;BMP_pressure;BME280_temperature;BME280_humidity;BME280_pressure;Samples;Min_cycle;Max_cycle;Signal;HPM_P1;HPM_P2
2024/02/13 00:00:32;;;;;;;13.88;7.50;;;;;;;7.87;100.00;98416.31;5088780;28;20475;-70
2024/02/13 00:02:58;;;;;;;21.83;7.72;;;;;;;7.97;100.00;98411.47;5092355;28;20023;-70
2024/02/13 00:05:24;;;;;;;20.60;8.40;;;;;;;8.03;100.00;98415.69;5090788;28;20497;-70
2024/02/13 00:07:50;;;;;;;24.60;8.23;;;;;;;8.36;100.00;98422.38;5110678;28;20026;-70
2024/02/13 00:10:16;;;;;;;16.48;6.93;;;;;;;8.57;100.00;98425.06;5109864;28;20024;-70
2024/02/13 00:12:42;;;;;;;12.85;6.88;;;;;;;8.77;100.00;98428.91;5092471;28;20080;-70
2024/02/13 00:15:14;;;;;;;16.00;7.22;;;;;;;8.81;100.00;98429.03;5110542;28;20415;-70
2024/02/13 00:17:41;;;;;;;18.25;8.00;;;;;;;8.76;100.00;98430.09;5110425;28;20557;-70
2024/02/13 00:20:08;;;;;;;17.50;7.03;;;;;;;8.80;100.00;98435.78;5088522;28;20457;-70
2024/02/13 00:22:35;;;;;;;20.13;8.52;;;;;;;8.40;100.00;98432.47;5109634;28;20105;-71
2024/02/13 00:25:01;;;;;;;16.70;7.55;;;;;;;7.99;100.00;98428.66;5110637;28;20023;-71
2024/02/13 00:27:26;;;;;;;19.13;7.55;;;;;;;7.98;100.00;98427.84;5092317;28;20030;-71
2024/02/13 00:29:52;;;;;;;12.55;7.15;;;;;;;7.89;100.00;98418.75;5092231;28;20027;-71
2024/02/13 00:32:18;;;;;;;13.43;7.57;;;;;;;7.99;100.00;98423.06;5091858;28;20080;-71
2024/02/13 00:34:44;;;;;;;17.30;7.55;;;;;;;8.06;100.00;98420.56;5105223;28;20024;-71
2024/02/13 00:37:10;;;;;;;17.25;7.28;;;;;;;8.13;100.00;98425.56;5108138;28;20393;-71
2024/02/13 00:39:37;;;;;;;15.32;8.35;;;;;;;7.71;100.00;98410.56;5110437;28;20506;-71
2024/02/13 00:42:04;;;;;;;12.38;7.60;;;;;;;7.81;100.00;98414.91;5091236;28;20028;-71
2024/02/13 00:44:29;;;;;;;18.73;8.10;;;;;;;7.62;100.00;98420.16;5091969;28;20410;-71
2024/02/13 00:46:56;;;;;;;13.02;7.82;;;;;;;7.65;100.00;98414.72;5092161;28;20484;-71
2024/02/13 00:49:22;;;;;;;15.27;7.88;;;;;;;7.71;100.00;98413.34;5110446;28;20024;-71
2024/02/13 00:51:48;;;;;;;24.63;9.25;;;;;;;7.69;100.00;98406.50;5100257;28;20035;-71
2024/02/13 00:54:14;;;;;;;21.90;9.00;;;;;;;7.83;100.00;98404.25;5090058;28;20024;-71
2024/02/13 00:56:42;;;;;;;17.42;8.40;;;;;;;7.93;100.00;98404.97;5104703;28;20051;-71
2024/02/13 00:59:07;;;;;;;12.98;8.98;;;;;;;7.98;100.00;98401.97;5110440;28;20088;-71
2024/02/13 01:01:36;;;;;;;23.60;8.45;;;;;;;7.79;100.00;98399.69;5091226;28;20062;-71
2024/02/13 01:04:06;;;;;;;17.08;10.05;;;;;;;7.45;100.00;98408.81;5110269;28;20575;-71
2024/02/13 01:06:33;;;;;;;15.88;8.75;;;;;;;7.42;100.00;98401.16;5108078;28;20476;-71
2024/02/13 01:09:00;;;;;;;20.52;9.60;;;;;;;7.40;100.00;98385.97;5093356;28;20032;-71
2024/02/13 01:11:26;;;;;;;22.13;9.23;;;;;;;7.14;100.00;98398.94;5099863;28;20043;-71
2024/02/13 01:13:52;;;;;;;19.98;8.90;;;;;;;6.85;100.00;98399.78;5087955;28;20031;-71
2024/02/13 01:16:19;;;;;;;13.88;9.07;;;;;;;6.84;100.00;98390.63;5089844;28;20421;-71
2024/02/13 01:18:44;;;;;;;13.68;8.18;;;;;;;6.88;100.00;98405.50;5072700;28;20489;-71
2024/02/13 01:21:14;;;;;;;16.85;7.88;;;;;;;6.81;100.00;98407.97;5101370;28;20038;-71
2024/02/13 01:23:40;;;;;;;22.77;10.60;;;;;;;6.63;100.00;98403.66;5103744;28;20028;-71
2024/02/13 01:26:05;;;;;;;18.65;9.68;;;;;;;6.22;100.00;98411.53;5089802;28;20027;-71
2024/02/13 01:28:34;;;;;;;18.60;9.38;;;;;;;6.23;100.00;98397.28;5071614;28;20484;-71
2024/02/13 01:31:02;;;;;;;26.48;8.55;;;;;;;6.24;100.00;98404.47;5089514;28;20097;-71
2024/02/13 01:33:28;;;;;;;20.20;7.15;;;;;;;6.22;100.00;98405.97;5089931;28;20507;-70
2024/02/13 01:35:53;;;;;;;22.83;8.52;;;;;;;6.21;100.00;98409.88;5082280;28;20027;-70
2024/02/13 01:38:20;;;;;;;21.85;7.10;;;;;;;6.51;100.00;98407.94;5108680;28;20031;-71
2024/02/13 01:40:46;;;;;;;12.77;7.45;;;;;;;6.49;100.00;98403.91;5079828;28;20443;-70
2024/02/13 01:43:12;;;;;;;16.25;6.57;;;;;;;6.51;100.00;98404.38;5109655;28;20049;-70
2024/02/13 01:45:38;;;;;;;14.95;8.05;;;;;;;6.34;100.00;98402.47;5109510;28;20055;-70
2024/02/13 01:48:06;;;;;;;13.52;6.85;;;;;;;6.32;100.00;98398.06;5109606;28;20459;-70
2024/02/13 01:50:36;;;;;;;10.93;6.57;;;;;;;6.32;100.00;98394.47;5109629;28;20107;-70
2024/02/13 01:53:03;;;;;;;11.87;7.73;;;;;;;6.38;100.00;98409.00;5091203;28;20020;-70
2024/02/13 01:55:30;;;;;;;16.85;8.05;;;;;;;6.45;100.00;98414.84;5090437;28;20135;-70
2024/02/13 01:58:02;;;;;;;14.75;7.38;;;;;;;6.58;100.00;98408.25;5094730;28;20039;-70
2024/02/13 02:00:28;;;;;;;11.55;7.03;;;;;;;6.72;100.00;98409.97;5112483;28;20271;-70
2024/02/13 02:02:54;;;;;;;16.48;6.55;;;;;;;6.86;100.00;98412.53;5103941;28;20035;-70
2024/02/13 02:05:20;;;;;;;21.45;7.72;;;;;;;6.86;100.00;98415.31;5104058;28;20031;-70
2024/02/13 02:07:46;;;;;;;13.05;7.32;;;;;;;6.98;100.00;98420.97;5094587;28;20043;-70
2024/02/13 02:10:13;;;;;;;19.52;7.95;;;;;;;6.87;100.00;98417.72;5112822;28;20580;-70
2024/02/13 02:12:40;;;;;;;16.35;8.15;;;;;;;6.84;100.00;98418.41;5112269;28;20035;-70
2024/02/13 02:15:06;;;;;;;12.18;7.45;;;;;;;6.98;100.00;98411.78;5113970;28;20023;-70
2024/02/13 02:17:32;;;;;;;16.25;7.93;;;;;;;7.09;100.00;98415.81;5113567;28;20023;-70
2024/02/13 02:19:58;;;;;;;21.92;8.40;;;;;;;7.08;100.00;98421.72;5112646;28;20069;-70
2024/02/13 02:22:23;;;;;;;22.50;7.43;;;;;;;6.93;100.00;98423.13;5112789;28;20645;-70
2024/02/13 02:24:49;;;;;;;16.25;6.68;;;;;;;6.56;100.00;98424.44;5112744;28;20084;-70
2024/02/13 02:27:16;;;;;;;12.85;7.15;;;;;;;6.31;100.00;98423.38;5112541;28;20065;-70
2024/02/13 02:29:41;;;;;;;14.93;6.60;;;;;;;6.21;100.00;98426.53;5094246;28;20028;-70
2024/02/13 02:32:09;;;;;;;16.40;7.00;;;;;;;5.99;100.00;98423.63;5074124;28;20023;-70
2024/02/13 02:34:35;;;;;;;18.17;7.93;;;;;;;5.95;100.00;98435.72;5096142;28;20073;-70
2024/02/13 02:37:01;;;;;;;14.15;6.78;;;;;;;5.91;100.00;98430.00;5112485;28;20028;-70
2024/02/13 02:39:27;;;;;;;18.13;8.20;;;;;;;5.75;100.00;98422.19;5111833;28;20043;-70
2024/02/13 02:41:53;;;;;;;13.13;8.00;;;;;;;5.81;100.00;98431.16;5111911;28;20122;-70
2024/02/13 02:44:21;;;;;;;15.43;8.48;;;;;;;5.75;100.00;98430.50;5112391;28;20122;-70
2024/02/13 02:46:47;;;;;;;21.00;9.55;;;;;;;5.89;100.00;98438.66;5089907;28;20032;-70
2024/02/13 02:49:13;;;;;;;19.75;8.48;;;;;;;5.94;100.00;98434.91;5091843;28;20016;-70
2024/02/13 02:51:39;;;;;;;17.98;8.75;;;;;;;5.98;100.00;98435.06;5091704;28;20020;-70
2024/02/13 02:54:05;;;;;;;19.48;7.80;;;;;;;6.07;100.00;98437.84;5091779;28;20027;-70
2024/02/13 02:56:31;;;;;;;16.77;7.22;;;;;;;6.10;100.00;98446.34;5093019;28;20043;-70
2024/02/13 02:58:58;;;;;;;16.77;8.38;;;;;;;6.10;100.00;98449.13;5093084;28;20117;-70
2024/02/13 03:01:24;;;;;;;19.25;7.88;;;;;;;6.16;100.00;98458.88;5108797;28;20039;-70
2024/02/13 03:03:50;;;;;;;12.38;7.15;;;;;;;6.32;100.00;98445.28;5091843;28;20035;-70
2024/02/13 03:06:16;;;;;;;9.57;6.90;;;;;;;6.54;100.00;98450.94;5091595;28;20094;-70
2024/02/13 03:08:42;;;;;;;17.15;7.28;;;;;;;6.54;100.00;98453.69;5091316;28;20020;-70
2024/02/13 03:11:08;;;;;;;14.55;7.15;;;;;;;6.46;100.00;98449.81;5079530;28;20020;-70
2024/02/13 03:13:34;;;;;;;42.20;20.65;;;;;;;6.38;100.00;98462.59;5111694;28;20066;-70
2024/02/13 03:16:00;;;;;;;52.45;23.15;;;;;;;6.23;100.00;98475.03;5112093;28;20051;-70
2024/02/13 03:18:26;;;;;;;34.13;18.63;;;;;;;6.26;100.00;98454.13;5089316;28;20047;-70
2024/02/13 03:20:52;;;;;;;35.58;16.98;;;;;;;6.36;100.00;98466.84;5109251;28;20032;-70
2024/02/13 03:23:17;;;;;;;14.93;8.77;;;;;;;6.17;100.00;98476.38;5111611;28;20031;-70
2024/02/13 03:25:43;;;;;;;17.92;8.55;;;;;;;5.81;100.00;98467.25;5093317;28;20031;-69
2024/02/13 03:28:08;;;;;;;15.02;8.30;;;;;;;5.75;100.00;98488.00;5092030;28;20038;-69
2024/02/13 03:30:34;;;;;;;11.35;7.05;;;;;;;5.84;100.00;98471.31;5089285;28;20089;-69
2024/02/13 03:33:00;;;;;;;18.35;8.27;;;;;;;5.68;100.00;98477.38;5076824;28;20118;-70
2024/02/13 03:35:26;;;;;;;15.63;8.48;;;;;;;5.47;100.00;98477.19;5090956;28;20020;-69
2024/02/13 03:37:51;;;;;;;15.80;7.28;;;;;;;5.36;100.00;98475.88;5096995;28;20081;-69
2024/02/13 03:40:17;;;;;;;17.90;8.45;;;;;;;5.38;100.00;98485.50;5091031;28;20439;-70
2024/02/13 03:42:44;;;;;;;35.10;15.73;;;;;;;5.40;100.00;98485.19;5086636;28;20024;-69
2024/02/13 03:45:10;;;;;;;31.80;15.57;;;;;;;5.37;100.00;98486.66;5090639;28;20022;-69
2024/02/13 03:47:36;;;;;;;21.58;10.18;;;;;;;5.57;100.00;98492.72;5090612;28;20099;-69
2024/02/13 03:50:02;;;;;;;22.42;12.20;;;;;;;5.66;100.00;98496.28;5090691;28;20072;-69
2024/02/13 03:52:28;;;;;;;40.58;18.08;;;;;;;5.73;100.00;98491.06;5090627;28;20108;-69
2024/02/13 03:54:53;;;;;;;14.90;7.57;;;;;;;5.79;100.00;98477.03;5090857;28;20028;-69
2024/02/13 03:57:19;;;;;;;16.20;6.82;;;;;;;6.06;100.00;98489.78;5106660;28;20050;-69
2024/02/13 03:59:44;;;;;;;12.57;7.45;;;;;;;6.08;100.00;98489.47;5096877;28;20024;-70
2024/02/13 04:02:11;;;;;;;11.38;7.22;;;;;;;6.24;100.00;98498.09;5074644;28;20097;-70
2024/02/13 04:04:36;;;;;;;19.00;6.45;;;;;;;6.30;100.00;98497.59;5090328;28;20103;-69
2024/02/13 04:07:04;;;;;;;13.73;6.45;;;;;;;6.44;100.00;98502.13;5071928;28;20110;-70
2024/02/13 04:09:30;;;;;;;18.02;6.60;;;;;;;6.54;100.00;98489.81;5090334;28;20042;-69
2024/02/13 04:11:55;;;;;;;15.77;6.35;;;;;;;6.60;100.00;98491.28;5102939;28;20046;-69
2024/02/13 04:14:21;;;;;;;17.25;9.27;;;;;;;6.59;100.00;98493.25;5090647;28;20428;-69
2024/02/13 04:16:47;;;;;;;10.55;7.05;;;;;;;6.72;100.00;98485.00;5090110;28;20031;-69
2024/02/13 04:19:12;;;;;;;12.45;6.88;;;;;;;6.78;100.00;98486.47;5097315;28;20016;-69
2024/02/13 04:21:37;;;;;;;14.23;6.45;;;;;;;6.91;100.00;98483.81;5092126;28;20111;-69
2024/02/13 04:24:05;;;;;;;15.23;7.93;;;;;;;7.01;100.00;98480.66;5092847;28;20028;-69
2024/02/13 04:26:31;;;;;;;11.63;5.65;;;;;;;7.11;100.00;98483.03;5090185;28;20054;-69
2024/02/13 04:28:56;;;;;;;9.98;5.68;;;;;;;7.33;100.00;98491.41;5083810;28;20446;-69
2024/02/13 04:31:22;;;;;;;9.55;5.43;;;;;;;7.42;100.00;98490.19;5109613;28;20028;-70
2024/02/13 04:33:48;;;;;;;6.85;5.93;;;;;;;7.42;100.00;98501.31;5090776;28;20114;-70
2024/02/13 04:36:13;;;;;;;8.13;4.75;;;;;;;7.43;100.00;98483.47;5110445;28;20031;-69
2024/02/13 04:38:39;;;;;;;8.60;6.20;;;;;;;7.47;100.00;98489.19;5096150;28;20039;-70
2024/02/13 04:41:04;;;;;;;15.23;7.10;;;;;;;7.49;100.00;98500.00;5095659;28;20030;-69
2024/02/13 04:43:30;;;;;;;9.18;5.55;;;;;;;7.53;100.00;98490.59;5109193;28;20085;-70
2024/02/13 04:45:55;;;;;;;11.38;6.13;;;;;;;7.50;100.00;98487.72;5110270;28;20508;-69
2024/02/13 04:48:21;;;;;;;7.82;5.60;;;;;;;7.57;100.00;98502.69;5098026;28;20103;-69
2024/02/13 04:50:46;;;;;;;16.33;6.72;;;;;;;7.59;100.00;98503.19;5091282;28;20027;-69
2024/02/13 04:53:15;;;;;;;13.63;5.43;;;;;;;7.66;100.00;98504.59;5099273;28;20023;-70
2024/02/13 04:55:41;;;;;;;20.27;5.43;;;;;;;7.76;100.00;98512.53;5071343;28;20202;-69
2024/02/13 04:58:08;;;;;;;8.25;5.32;;;;;;;7.91;100.00;98515.88;5089504;28;20469;-70
2024/02/13 05:00:37;;;;;;;14.65;5.63;;;;;;;8.05;100.00;98519.19;5089703;28;20028;-70
2024/02/13 05:03:16;;;;;;;10.23;6.15;;;;;;;8.06;100.00;98531.13;5071677;28;20416;-70
2024/02/13 05:08:29;;;;;;;11.68;5.43;;;;;;;8.05;100.00;98547.03;5108982;28;20033;-69
2024/02/13 05:10:56;;;;;;;11.50;5.40;;;;;;;8.08;100.00;98542.75;5090325;28;20461;-70
2024/02/13 05:13:22;;;;;;;19.75;5.85;;;;;;;7.98;100.00;98532.84;5098511;28;20024;-70
2024/02/13 05:15:47;;;;;;;15.23;5.70;;;;;;;8.04;100.00;98541.81;5089655;28;20033;-70
2024/02/13 05:18:13;;;;;;;13.23;6.95;;;;;;;8.08;100.00;98539.94;5089423;28;20051;-70
2024/02/13 05:20:39;;;;;;;14.60;7.07;;;;;;;8.15;100.00;98538.28;5071324;28;20577;-70
2024/02/13 05:23:06;;;;;;;16.45;10.52;;;;;;;8.05;100.00;98540.66;5076145;28;20063;-70
2024/02/13 05:25:32;;;;;;;20.20;11.00;;;;;;;7.99;100.00;98534.47;5073713;28;20046;-69
2024/02/13 05:27:59;;;;;;;29.15;15.30;;;;;;;8.09;100.00;98544.41;5101285;28;20443;-70
2024/02/13 05:30:25;;;;;;;22.38;10.90;;;;;;;8.05;100.00;98540.66;5104904;28;20403;-70
2024/02/13 05:32:51;;;;;;;22.83;10.77;;;;;;;7.95;100.00;98541.88;5096483;28;20118;-69
2024/02/13 05:35:17;;;;;;;18.38;8.35;;;;;;;7.93;100.00;98530.28;5104367;28;20029;-71
2024/02/13 05:37:42;;;;;;;16.52;6.95;;;;;;;7.92;100.00;98534.22;5095284;28;20415;-69
2024/02/13 05:40:10;;;;;;;12.40;7.20;;;;;;;7.89;100.00;98544.06;5094004;28;20427;-69
2024/02/13 05:42:35;;;;;;;9.77;6.53;;;;;;;7.97;100.00;98559.88;5113708;28;20059;-69
2024/02/13 05:45:01;;;;;;;14.63;6.75;;;;;;;7.97;100.00;98559.06;5094561;28;20515;-70
2024/02/13 05:47:33;;;;;;;8.13;5.82;;;;;;;7.98;100.00;98566.25;5082283;28;20511;-68
2024/02/13 05:49:59;;;;;;;12.90;5.50;;;;;;;8.10;100.00;98563.53;5074890;28;20082;-70
2024/02/13 05:52:24;;;;;;;9.05;5.63;;;;;;;8.19;100.00;98559.88;5093322;28;20032;-72
2024/02/13 05:54:50;;;;;;;16.88;5.35;;;;;;;8.20;100.00;98567.06;5080217;28;20084;-71
2024/02/13 05:57:15;;;;;;;9.40;6.20;;;;;;;8.20;100.00;98565.06;5113110;28;20062;-69
2024/02/13 05:59:40;;;;;;;12.70;5.97;;;;;;;8.33;100.00;98567.94;5094525;28;20028;-69
2024/02/13 06:02:06;;;;;;;13.88;7.32;;;;;;;8.39;100.00;98572.13;5113300;28;20027;-72
2024/02/13 06:04:31;;;;;;;12.43;7.72;;;;;;;8.50;100.00;98584.53;5089684;28;20036;-71
2024/02/13 06:06:57;;;;;;;13.63;8.13;;;;;;;8.47;100.00;98584.34;5092766;28;20477;-71
2024/02/13 06:09:24;;;;;;;12.00;7.35;;;;;;;8.43;100.00;98579.47;5103738;28;20030;-70
2024/02/13 06:11:52;;;;;;;19.35;9.45;;;;;;;8.41;100.00;98586.53;5105885;28;20039;-70
2024/02/13 06:14:18;;;;;;;13.77;8.63;;;;;;;8.48;100.00;98597.13;5113031;28;20407;-70
2024/02/13 06:16:44;;;;;;;18.63;8.32;;;;;;;8.47;100.00;98601.91;5094591;28;20028;-72
2024/02/13 06:19:10;;;;;;;17.30;8.10;;;;;;;8.45;100.00;98607.00;5111467;28;20526;-70
2024/02/13 06:21:36;;;;;;;15.90;9.85;;;;;;;8.45;100.00;98595.88;5076635;28;20024;-70
2024/02/13 06:24:03;;;;;;;14.77;8.27;;;;;;;8.60;100.00;98607.56;5082806;28;20028;-69
2024/02/13 06:26:28;;;;;;;13.48;7.38;;;;;;;8.64;100.00;98608.50;5084780;28;20020;-69
2024/02/13 06:28:54;;;;;;;16.90;7.90;;;;;;;8.70;100.00;98616.28;5083765;28;20038;-69
2024/02/13 06:31:20;;;;;;;20.00;8.50;;;;;;;8.66;100.00;98617.31;5086950;28;20099;-69
2024/02/13 06:33:45;;;;;;;25.88;11.90;;;;;;;8.69;100.00;98622.22;5083077;28;20024;-69
2024/02/13 06:36:11;;;;;;;17.17;10.82;;;;;;;8.55;100.00;98623.31;5084414;28;20023;-70
2024/02/13 06:38:36;;;;;;;18.42;10.13;;;;;;;8.56;100.00;98627.72;5102516;28;20060;-71
2024/02/13 06:41:05;;;;;;;17.38;9.45;;;;;;;8.50;100.00;98626.31;5088629;28;20024;-70
2024/02/13 06:43:34;;;;;;;10.57;6.80;;;;;;;8.59;100.00;98631.81;5107367;28;20484;-69
2024/02/13 06:46:02;;;;;;;12.15;6.63;;;;;;;8.64;100.00;98622.44;5110838;28;20488;-69
2024/02/13 06:48:28;;;;;;;9.60;7.25;;;;;;;8.81;100.00;98640.97;5107911;28;20026;-69
2024/02/13 06:50:53;;;;;;;8.93;6.15;;;;;;;8.78;100.00;98641.66;5107651;28;20027;-71
2024/02/13 06:53:19;;;;;;;11.27;8.20;;;;;;;8.95;100.00;98646.25;5087926;28;20062;-73
2024/02/13 06:55:45;;;;;;;17.38;7.53;;;;;;;9.17;100.00;98646.97;5103735;28;20058;-69
2024/02/13 06:58:11;;;;;;;10.48;6.70;;;;;;;9.33;100.00;98650.72;5098615;28;20085;-69
2024/02/13 07:00:37;;;;;;;16.92;8.45;;;;;;;9.47;100.00;98652.38;5104343;28;20431;-70
2024/02/13 07:03:03;;;;;;;15.45;9.88;;;;;;;9.41;100.00;98649.00;5094973;28;20031;-69
2024/02/13 07:05:29;;;;;;;15.40;10.00;;;;;;;9.47;100.00;98653.19;5086431;28;20035;-69
2024/02/13 07:07:55;;;;;;;15.02;9.50;;;;;;;9.47;100.00;98653.19;5106953;28;20020;-68
2024/02/13 07:10:20;;;;;;;26.40;8.15;;;;;;;9.36;100.00;98658.41;5092097;28;20031;-69
2024/02/13 07:12:46;;;;;;;16.58;9.98;;;;;;;9.24;100.00;98653.63;5084790;28;20031;-69
2024/02/13 07:15:12;;;;;;;20.15;11.20;;;;;;;9.13;100.00;98661.63;5097178;28;20035;-69
2024/02/13 07:17:37;;;;;;;20.08;10.40;;;;;;;9.12;100.00;98657.19;5091295;28;20027;-69
2024/02/13 07:20:03;;;;;;;13.50;6.72;;;;;;;9.16;100.00;98656.50;5090092;28;20438;-72
2024/02/13 07:22:29;;;;;;;8.52;6.93;;;;;;;9.16;100.00;98660.13;5071070;28;20106;-70
2024/02/13 07:24:54;;;;;;;11.77;8.95;;;;;;;9.12;100.00;98664.78;5104789;28;20028;-68
2024/02/13 07:27:20;;;;;;;37.75;29.83;;;;;;;9.33;100.00;98667.47;5071304;28;20043;-69
2024/02/13 07:29:45;;;;;;;12.82;9.23;;;;;;;9.72;99.38;98674.72;5110347;28;20023;-69
2024/02/13 07:32:11;;;;;;;11.02;8.60;;;;;;;10.00;99.00;98668.41;5096285;28;20027;-72
2024/02/13 07:34:38;;;;;;;6.28;5.38;;;;;;;9.90;95.25;98680.88;5108375;28;20058;-68
2024/02/13 07:37:08;;;;;;;10.32;6.10;;;;;;;9.95;96.03;98680.63;5109468;28;20507;-68
2024/02/13 07:39:36;;;;;;;8.15;5.05;;;;;;;9.75;94.90;98674.00;5110543;28;20023;-70
2024/02/13 07:42:04;;;;;;;5.28;4.22;;;;;;;9.61;94.68;98671.59;5106877;28;20096;-71
2024/02/13 07:44:31;;;;;;;4.43;3.22;;;;;;;9.55;93.02;98674.59;5079546;28;20023;-70
2024/02/13 07:46:57;;;;;;;6.75;5.38;;;;;;;9.58;93.62;98673.09;5097826;28;20028;-72
2024/02/13 07:49:25;;;;;;;4.65;4.18;;;;;;;9.48;93.59;98666.00;5085754;28;20114;-71
2024/02/13 07:51:51;;;;;;;4.43;3.42;;;;;;;9.50;93.44;98674.84;5101569;28;20099;-70
2024/02/13 07:54:18;;;;;;;6.68;3.88;;;;;;;9.48;92.27;98663.19;5107221;28;20416;-73
2024/02/13 07:56:43;;;;;;;8.95;4.47;;;;;;;9.58;92.78;98678.66;5107028;28;20047;-72
2024/02/13 07:59:09;;;;;;;4.57;4.07;;;;;;;9.51;91.25;98673.66;5107113;28;20408;-73
2024/02/13 08:01:35;;;;;;;4.18;3.28;;;;;;;9.59;92.43;98680.31;5089597;28;20043;-72
2024/02/13 08:04:00;;;;;;;6.03;4.20;;;;;;;9.53;90.63;98681.69;5101843;28;20040;-70
2024/02/13 08:06:26;;;;;;;7.97;5.50;;;;;;;9.66;92.63;98691.72;5109381;28;20419;-72
2024/02/13 08:08:52;;;;;;;5.55;4.07;;;;;;;9.71;89.37;98681.47;5090041;28;20032;-73
2024/02/13 08:11:17;;;;;;;5.07;3.75;;;;;;;9.78;88.53;98676.94;5089981;28;20031;-70
2024/02/13 08:13:43;;;;;;;7.25;4.07;;;;;;;10.13;87.67;98680.41;5107353;28;20028;-73
2024/02/13 08:16:11;;;;;;;3.10;2.38;;;;;;;10.42;84.98;98686.88;5092238;28;20126;-70
2024/02/13 08:18:37;;;;;;;3.40;2.90;;;;;;;10.64;85.27;98680.78;5090883;28;20510;-71
2024/02/13 08:21:03;;;;;;;3.95;3.03;;;;;;;10.61;83.71;98687.09;5109887;28;20372;-78
2024/02/13 08:23:29;;;;;;;5.32;3.05;;;;;;;10.39;84.53;98683.59;5105913;28;20024;-82
2024/02/13 08:25:54;;;;;;;6.75;3.80;;;;;;;10.38;85.19;98679.19;5090764;28;20499;-77
2024/02/13 08:28:20;;;;;;;9.65;4.65;;;;;;;10.50;85.40;98672.78;5109424;28;20473;-82
2024/02/13 08:30:48;;;;;;;8.02;4.57;;;;;;;10.68;86.09;98678.09;5110091;28;20031;-78
2024/02/13 08:33:15;;;;;;;6.55;4.20;;;;;;;10.85;85.24;98665.78;5085168;28;20058;-72
2024/02/13 08:35:42;;;;;;;7.57;4.55;;;;;;;10.99;84.89;98681.34;5110223;28;20035;-73
2024/02/13 08:38:11;;;;;;;6.28;3.58;;;;;;;11.06;80.87;98676.75;5105474;28;20073;-74
2024/02/13 08:40:36;;;;;;;3.63;2.90;;;;;;;11.13;81.09;98670.53;5088628;28;20385;-77
2024/02/13 08:43:05;;;;;;;7.82;4.38;;;;;;;11.09;78.57;98678.81;5109682;28;20038;-76
2024/02/13 08:45:30;;;;;;;7.15;4.38;;;;;;;11.05;78.60;98671.53;5091640;28;20048;-75
2024/02/13 08:47:56;;;;;;;6.20;3.88;;;;;;;11.17;78.81;98684.63;5087267;28;20053;-74
2024/02/13 08:50:21;;;;;;;9.77;5.55;;;;;;;11.32;79.63;98678.22;5109298;28;20027;-74
2024/02/13 08:52:48;;;;;;;15.70;5.22;;;;;;;11.50;79.33;98670.28;5109277;28;20362;-74
2024/02/13 08:55:14;;;;;;;10.05;4.95;;;;;;;11.84;79.93;98664.34;5109366;28;20036;-74
2024/02/13 08:57:40;;;;;;;8.98;4.47;;;;;;;12.10;76.59;98673.34;5108696;28;20457;-75
2024/02/13 09:00:15;;;;;;;7.63;4.13;;;;;;;12.05;76.21;98678.06;5106235;28;20431;-73
2024/02/13 09:02:41;;;;;;;5.50;3.28;;;;;;;11.95;77.30;98667.38;5107485;28;20035;-77
2024/02/13 09:05:07;;;;;;;5.40;3.67;;;;;;;12.12;78.16;98673.78;5080833;28;20055;-74
2024/02/13 09:07:32;;;;;;;8.05;3.70;;;;;;;12.01;74.55;98663.13;5112504;28;20110;-75
2024/02/13 09:09:58;;;;;;;5.97;3.28;;;;;;;12.17;72.51;98671.53;5111296;28;20031;-74
2024/02/13 09:12:24;;;;;;;6.63;4.07;;;;;;;12.33;74.95;98679.09;5112508;28;20031;-72
2024/02/13 09:14:49;;;;;;;13.15;6.25;;;;;;;12.49;76.21;98665.03;5110829;28;20024;-72
2024/02/13 09:17:15;;;;;;;3.85;3.05;;;;;;;12.31;71.20;98673.03;5094945;28;20034;-76
2024/02/13 09:19:43;;;;;;;9.63;3.10;;;;;;;12.20;72.04;98665.19;5086699;28;20532;-75
2024/02/13 09:22:13;;;;;;;4.82;3.58;;;;;;;12.45;73.82;98673.34;5108603;28;20031;-74
2024/02/13 09:24:43;;;;;;;4.05;3.33;;;;;;;12.80;73.61;98668.06;5091598;28;20043;-70
2024/02/13 09:27:11;;;;;;;4.03;3.15;;;;;;;12.86;74.22;98667.41;5088991;28;20058;-73
2024/02/13 09:29:37;;;;;;;12.85;4.30;;;;;;;12.84;72.60;98664.13;5106548;28;20424;-74
2024/02/13 09:32:04;;;;;;;3.22;2.25;;;;;;;12.67;70.29;98662.59;5109438;28;20061;-72
2024/02/13 09:34:30;;;;;;;2.10;1.90;;;;;;;12.58;69.58;98659.19;5090295;28;20035;-78
2024/02/13 09:36:55;;;;;;;3.25;2.67;;;;;;;12.69;70.74;98673.44;5107700;28;20103;-77
2024/02/13 09:39:21;;;;;;;4.28;2.75;;;;;;;12.78;70.52;98672.03;5111334;28;20035;-72
2024/02/13 09:41:46;;;;;;;4.45;2.70;;;;;;;12.73;70.60;98669.53;5105966;28;20059;-74
2024/02/13 09:44:14;;;;;;;4.13;3.60;;;;;;;12.80;70.22;98668.06;5106276;28;20027;-74
2024/02/13 09:46:42;;;;;;;6.30;3.58;;;;;;;12.77;67.76;98672.41;5090240;28;20096;-73
2024/02/13 09:49:11;;;;;;;2.15;1.90;;;;;;;12.56;66.58;98675.59;5103860;28;20015;-73
2024/02/13 09:51:40;;;;;;;3.03;2.83;;;;;;;12.17;68.05;98660.31;5091168;28;20118;-70
2024/02/13 09:54:08;;;;;;;2.97;2.63;;;;;;;12.27;68.74;98656.13;5092267;28;20079;-69
2024/02/13 09:56:35;;;;;;;2.78;2.58;;;;;;;12.19;67.04;98649.56;5110129;28;20435;-72
2024/02/13 09:59:03;;;;;;;4.53;2.53;;;;;;;12.39;67.77;98662.81;5087985;28;20510;-69
2024/02/13 10:01:30;;;;;;;5.40;2.50;;;;;;;12.39;67.32;98640.38;5084429;28;20069;-68
2024/02/13 10:03:55;;;;;;;2.72;2.47;;;;;;;12.70;68.30;98647.81;5092572;28;20081;-69
2024/02/13 10:06:21;;;;;;;2.90;2.30;;;;;;;12.42;66.34;98620.78;5092420;28;20113;-69
2024/02/13 10:08:53;;;;;;;3.63;2.10;;;;;;;12.52;64.50;98643.81;5093603;28;20400;-69
2024/02/13 10:11:29;;;;;;;2.53;2.33;;;;;;;12.63;65.01;98644.88;5092820;28;20505;-69
2024/02/13 10:13:54;;;;;;;6.25;2.20;;;;;;;12.63;64.77;98639.25;5091354;28;20139;-70
2024/02/13 10:16:25;;;;;;;2.58;1.90;;;;;;;12.74;65.68;98639.50;5091801;28;20103;-69
2024/02/13 10:18:57;;;;;;;6.20;2.33;;;;;;;12.71;65.32;98634.59;5105490;28;20035;-69
2024/02/13 10:21:27;;;;;;;2.40;2.00;;;;;;;12.71;61.60;98640.22;5109341;28;20027;-70
2024/02/13 10:24:13;;;;;;;1.95;1.85;;;;;;;12.29;63.91;98633.31;5094343;28;20114;-72
2024/02/13 10:26:39;;;;;;;3.90;3.40;;;;;;;12.44;64.85;98640.06;5080851;28;20032;-68
2024/02/13 10:29:04;;;;;;;8.32;4.22;;;;;;;12.55;66.03;98641.09;5081151;28;20557;-74
2024/02/13 10:31:36;;;;;;;5.95;3.35;;;;;;;12.45;65.95;98650.09;5082919;28;20516;-69
2024/02/13 10:34:07;;;;;;;4.13;2.60;;;;;;;12.28;63.97;98638.13;5083585;28;20456;-69
2024/02/13 10:36:35;;;;;;;3.00;2.60;;;;;;;12.30;66.54;98624.56;5104699;28;20528;-67
2024/02/13 10:39:08;;;;;;;2.85;2.53;;;;;;;12.41;66.06;98635.19;5109163;28;20023;-70
2024/02/13 10:41:42;;;;;;;1.90;1.80;;;;;;;12.63;63.54;98642.06;5087930;28;20016;-68
2024/02/13 10:44:11;;;;;;;2.67;2.47;;;;;;;12.67;64.15;98642.13;5108585;28;20404;-72
2024/02/13 10:46:41;;;;;;;3.92;2.88;;;;;;;12.34;63.60;98638.66;5110318;28;20066;-72
2024/02/13 10:49:34;;;;;;;3.83;1.83;;;;;;;12.25;62.41;98635.25;5086895;28;20027;-71
2024/02/13 10:51:59;;;;;;;10.75;3.85;;;;;;;12.18;62.44;98633.09;5086710;28;20028;-72
2024/02/13 10:54:26;;;;;;;7.95;3.78;;;;;;;12.04;64.10;98617.59;5100504;28;20028;-71
2024/02/13 10:56:57;;;;;;;4.22;3.50;;;;;;;12.10;65.58;98615.31;5083101;28;20055;-71
2024/02/13 10:59:24;;;;;;;8.90;3.90;;;;;;;12.21;66.04;98632.34;5105464;28;20424;-71
2024/02/13 11:01:53;;;;;;;7.32;3.13;;;;;;;12.15;66.78;98623.41;5103895;28;20036;-72
2024/02/13 11:04:19;;;;;;;3.50;3.20;;;;;;;12.12;65.31;98634.56;5093975;28;20028;-73
2024/02/13 11:06:45;;;;;;;3.08;2.78;;;;;;;12.15;63.54;98626.22;5110649;28;20019;-72
2024/02/13 11:09:12;;;;;;;4.30;2.40;;;;;;;12.13;62.53;98614.56;5092037;28;20641;-70
2024/02/13 11:11:41;;;;;;;3.13;2.80;;;;;;;12.12;61.49;98607.34;5092417;28;20557;-71
2024/02/13 11:14:22;;;;;;;2.65;2.42;;;;;;;12.25;60.80;98604.41;5110096;28;20377;-72
2024/02/13 11:16:51;;;;;;;9.32;3.25;;;;;;;12.32;62.38;98607.38;5110769;28;20031;-70
2024/02/13 11:19:20;;;;;;;9.13;2.70;;;;;;;12.46;60.12;98607.66;5092936;28;20034;-70
2024/02/13 11:21:46;;;;;;;3.33;2.33;;;;;;;12.32;60.17;98593.34;5111593;28;20023;-71
2024/02/13 11:24:20;;;;;;;13.13;2.65;;;;;;;12.47;60.75;98605.66;5093106;28;20504;-74
2024/02/13 11:26:46;;;;;;;12.27;3.97;;;;;;;12.63;62.60;98591.56;5102932;28;20028;-74
2024/02/13 11:29:14;;;;;;;3.05;2.20;;;;;;;12.36;59.30;98600.63;5071097;28;20785;-70